EGCC - Manchester Airport
Distance from station: E 5mi, 14km
Updated: 01/17/2018 9:50am
Partly Cloudy
Partly Cloudy
 Wind from SW
Wind: SW 14 mph , 22 km/h
Temperature: 39°F , 4°C
Wind Chill: 31°F , -1°C
Dew Point: 34°F , 1°C
Humidity: 81%
Barometer: 29.62 inHg , 1003 hPa
Clouds: Partly Cloudy
Visibility: 6 miles , 10 km
Cloud details: Partly Cloudy 4100 ft
2018/01/17 17:50 EGCC 171750Z AUTO 22012KT 9999 SCT041 04/01 Q1003